Time;durP1;ratioP1;P1;durP2;ratioP2;P2;SDS_P1;SDS_P2;PMS_P1;PMS_P2;Temp;Humidity;BMP_temperature;BMP_pressure;BME280_temperature;BME280_humidity;BME280_pressure;Samples;Min_cycle;Max_cycle;Signal;HPM_P1;HPM_P2
2021/11/12 00:02:15;;;;;;;;;;;;;;;19.18;60.65;101843.00;5061952;28;1506;-35
2021/11/12 00:13:32;;;;;;;;;;;;;;;19.84;57.67;101833.69;5033224;28;1906;-34
2021/11/12 00:16:01;;;;;;;;;;;;;;;19.53;59.18;101853.88;5067808;28;1684;-35
2021/11/12 00:18:31;;;;;;;;;;;;;;;19.33;60.42;101849.94;5060751;28;1691;-34
2021/11/12 00:21:05;;;;;;;;;;;;;;;19.15;60.71;101848.59;5056520;28;1522;-34
2021/11/12 00:23:35;;;;;;;;;;;;;;;19.10;60.25;101840.03;5059398;28;1745;-34
2021/11/12 00:26:05;;;;;;;;;;;;;;;19.07;60.62;101831.25;5069919;28;1925;-35
2021/11/12 00:28:37;;;;;;;;;;;;;;;19.13;60.12;101829.09;5067985;28;1786;-35
2021/11/12 00:31:16;;;;;;;;;;;;;;;20.00;57.54;101819.97;5067684;28;1521;-35
2021/11/12 00:34:02;;;;;;;;;;;;;;;19.88;57.91;101837.03;5066421;28;1914;-34
2021/11/12 00:36:37;;;;;;;;;;;;;;;19.48;59.37;101827.38;5064357;28;1698;-34
2021/11/12 00:39:19;;;;;;;;;;;;;;;19.26;59.38;101814.69;5071026;28;1649;-34
2021/11/12 00:41:52;;;;;;;;;;;;;;;19.17;59.98;101815.34;5058609;28;1673;-35
2021/11/12 00:44:29;;;;;;;;;;;;;;;19.14;60.78;101807.53;5060650;28;1638;-34
2021/11/12 00:47:00;;;;;;;;;;;;;;;19.10;59.68;101807.84;5063727;28;1786;-34
2021/11/12 00:49:29;;;;;;;;;;;;;;;19.15;59.57;101805.72;5059681;28;1654;-35
2021/11/12 00:51:58;;;;;;;;;;;;;;;20.09;56.39;101796.94;5069659;28;1585;-34
2021/11/12 00:54:27;;;;;;;;;;;;;;;19.68;57.50;101801.75;5057331;28;1910;-34
2021/11/12 00:56:56;;;;;;;;;;;;;;;19.46;58.70;101807.88;5068918;28;1862;-34
2021/11/12 00:59:30;;;;;;;;;;;;;;;19.31;58.74;101816.19;5066998;28;1654;-35
2021/11/12 01:01:59;;;;;;;;;;;;;;;19.16;59.43;101815.44;5064963;28;1617;-35
2021/11/12 01:04:27;;;;;;;;;;;;;;;19.09;60.23;101796.28;5062981;28;1608;-35
2021/11/12 01:06:53;;;;;;;;;;;;;;;19.12;58.95;101800.56;5066420;28;1530;-35
2021/11/12 01:09:22;;;;;;;;;;;;;;;19.26;58.45;101808.47;5070543;28;1608;-34
2021/11/12 01:11:54;;;;;;;;;;;;;;;20.17;56.15;101781.06;5067162;28;1696;-35
2021/11/12 01:14:32;;;;;;;;;;;;;;;19.61;58.07;101786.22;5073119;28;1902;-35
2021/11/12 01:17:02;;;;;;;;;;;;;;;19.39;58.18;101786.97;5066736;28;1607;-35
2021/11/12 01:19:29;;;;;;;;;;;;;;;19.20;58.99;101780.28;5068121;28;1563;-34
2021/11/12 01:21:55;;;;;;;;;;;;;;;19.12;59.18;101777.31;5067464;28;1486;-34
2021/11/12 01:24:22;;;;;;;;;;;;;;;19.10;59.82;101783.72;5070763;28;1708;-34
2021/11/12 01:26:49;;;;;;;;;;;;;;;19.11;60.11;101778.25;5072978;28;1670;-34
2021/11/12 01:29:30;;;;;;;;;;;;;;;19.86;57.26;101790.66;5069397;28;1547;-34
2021/11/12 01:34:59;;;;;;;;;;;;;;;19.38;59.02;101772.72;5118584;27;1579;-34
2021/11/12 01:37:27;;;;;;;;;;;;;;;19.22;58.60;101781.03;5108105;28;2416;-34
2021/11/12 01:39:56;;;;;;;;;;;;;;;19.13;59.33;101770.97;5111404;28;1657;-34
2021/11/12 01:42:24;;;;;;;;;;;;;;;19.03;59.60;101778.81;5109582;28;1580;-34
2021/11/12 01:44:54;;;;;;;;;;;;;;;19.11;59.17;101785.44;5114533;28;1528;-34
2021/11/12 01:47:25;;;;;;;;;;;;;;;19.97;57.00;101771.88;5111290;28;1697;-34
2021/11/12 01:49:53;;;;;;;;;;;;;;;19.69;56.96;101778.44;5113911;28;1724;-34
2021/11/12 01:52:24;;;;;;;;;;;;;;;19.38;58.48;101761.97;5113417;28;1489;-34
2021/11/12 01:55:01;;;;;;;;;;;;;;;19.20;59.20;101752.59;5107798;28;1913;-34
2021/11/12 01:57:49;;;;;;;;;;;;;;;19.10;58.99;101760.47;5111591;28;1890;-34
2021/11/12 02:00:17;;;;;;;;;;;;;;;19.06;59.67;101759.84;5110388;28;1545;-34
2021/11/12 02:02:44;;;;;;;;;;;;;;;19.13;58.98;101764.75;5113623;28;1801;-34
2021/11/12 02:05:10;;;;;;;;;;;;;;;19.91;56.40;101766.97;5114821;27;1591;-34
2021/11/12 02:07:39;;;;;;;;;;;;;;;19.69;57.52;101767.72;5116108;28;1569;-34
2021/11/12 02:10:07;;;;;;;;;;;;;;;19.43;57.16;101754.44;5111686;28;1715;-34
2021/11/12 02:12:42;;;;;;;;;;;;;;;19.24;58.76;101762.16;5109878;28;1505;-35
2021/11/12 02:15:09;;;;;;;;;;;;;;;19.04;59.45;101753.72;5108879;28;2061;-34
2021/11/12 02:17:37;;;;;;;;;;;;;;;19.02;59.49;101766.38;5111171;27;1578;-34
2021/11/12 02:20:08;;;;;;;;;;;;;;;19.09;59.54;101772.16;5109458;27;1682;-34
2021/11/12 02:22:37;;;;;;;;;;;;;;;20.12;56.08;101777.91;5102587;28;1813;-34
2021/11/12 02:25:08;;;;;;;;;;;;;;;19.61;57.32;101765.59;5105472;28;1561;-34
2021/11/12 02:27:40;;;;;;;;;;;;;;;19.38;57.72;101779.91;5109885;28;1534;-34
2021/11/12 02:30:07;;;;;;;;;;;;;;;19.20;58.50;101771.34;5111732;28;1629;-34
2021/11/12 02:32:34;;;;;;;;;;;;;;;19.05;59.46;101771.50;5107188;28;1575;-34
2021/11/12 02:35:02;;;;;;;;;;;;;;;19.08;58.20;101765.09;5115607;27;1909;-34
2021/11/12 02:37:29;;;;;;;;;;;;;;;19.65;56.79;101767.09;5109949;28;1688;-34
2021/11/12 02:39:58;;;;;;;;;;;;;;;19.89;56.70;101765.38;5105236;28;1498;-34
2021/11/12 02:42:25;;;;;;;;;;;;;;;19.52;56.47;101760.94;5110872;28;1751;-34
2021/11/12 02:44:52;;;;;;;;;;;;;;;19.25;57.64;101756.66;5105162;27;1499;-35
2021/11/12 02:47:21;;;;;;;;;;;;;;;19.11;58.83;101753.28;5099890;28;1858;-34
2021/11/12 02:49:48;;;;;;;;;;;;;;;19.04;58.65;101755.56;5093887;28;2314;-34
2021/11/12 02:52:16;;;;;;;;;;;;;;;19.11;59.32;101753.28;5094989;28;1516;-34
2021/11/12 02:54:43;;;;;;;;;;;;;;;19.75;56.39;101763.75;5098976;28;1971;-34
2021/11/12 02:57:10;;;;;;;;;;;;;;;19.73;56.85;101753.13;5098014;28;1787;-34
2021/11/12 02:59:38;;;;;;;;;;;;;;;19.40;57.57;101757.34;5096154;28;1639;-34
2021/11/12 03:02:07;;;;;;;;;;;;;;;19.21;57.92;101762.34;5168119;22;3549;-31
2021/11/12 03:04:38;;;;;;;;;;;;;;;19.05;58.39;101776.03;5047988;28;1898;-31
2021/11/12 03:07:05;;;;;;;;;;;;;;;19.04;57.64;101764.44;5048709;28;2012;-32
2021/11/12 03:09:33;;;;;;;;;;;;;;;19.37;56.20;101757.56;5048950;28;1694;-31
2021/11/12 03:12:06;;;;;;;;;;;;;;;19.81;56.44;101766.81;5049792;28;1564;-31
2021/11/12 03:14:35;;;;;;;;;;;;;;;19.42;56.69;101763.47;5049209;28;1906;-33
2021/11/12 03:17:04;;;;;;;;;;;;;;;19.26;56.92;101757.53;5047768;28;1516;-31
2021/11/12 03:19:38;;;;;;;;;;;;;;;19.06;58.94;101748.25;5049357;28;1527;-31
2021/11/12 03:22:15;;;;;;;;;;;;;;;19.12;57.69;101758.53;5049919;28;1844;-31
2021/11/12 03:27:33;;;;;;;;;;;;;;;19.78;56.37;101734.84;5039554;28;1709;-31
2021/11/12 04:00:46;;;;;;;;;;;;;;;19.22;56.18;101729.22;5047883;28;1537;-32
2021/11/12 04:03:23;;;;;;;;;;;;;;;19.07;57.33;101740.09;5006875;28;1667;-31
2021/11/12 04:06:23;;;;;;;;;;;;;;;19.95;54.50;101735.38;5007024;28;1580;-31
2021/11/12 04:40:18;;;;;;;;;;;;;;;18.96;58.05;101747.19;5007705;28;1402;-31
2021/11/12 05:10:26;;;;;;;;;;;;;;;19.29;58.61;101738.50;5047222;28;2100;-31
2021/11/12 05:13:11;;;;;;;;;;;;;;;19.06;58.30;101753.63;5044305;28;1424;-31
2021/11/12 05:57:13;;;;;;;;;;;;;;;19.07;59.34;101774.94;5108369;28;1553;-37
2021/11/12 05:59:40;;;;;;;;;;;;;;;19.07;58.89;101766.91;5102609;28;1694;-36
2021/11/12 06:02:07;;;;;;;;;;;;;;;19.36;59.18;101780.00;5105035;28;1532;-36
2021/11/12 06:04:33;;;;;;;;;;;;;;;19.53;57.70;101780.56;5101440;28;1932;-36
2021/11/12 06:07:00;;;;;;;;;;;;;;;19.56;58.92;101781.22;5104022;28;1822;-36
2021/11/12 06:09:27;;;;;;;;;;;;;;;19.68;57.89;101774.06;5046864;27;10773;-36
2021/11/12 06:11:56;;;;;;;;;;;;;;;19.69;57.30;101762.34;5054201;28;1939;-36
2021/11/12 06:14:24;;;;;;;;;;;;;;;19.59;58.22;101766.69;5060243;28;1910;-37
2021/11/12 06:16:51;;;;;;;;;;;;;;;20.06;57.17;101763.13;5055127;28;1554;-36
2021/11/12 06:19:18;;;;;;;;;;;;;;;20.41;56.24;101786.41;5059512;28;1901;-36
2021/11/12 06:21:45;;;;;;;;;;;;;;;19.96;57.80;101786.28;5054567;28;1731;-36
2021/11/12 06:24:11;;;;;;;;;;;;;;;19.70;57.07;101776.66;5055793;28;2109;-36
2021/11/12 06:26:38;;;;;;;;;;;;;;;19.84;57.13;101777.34;5058426;28;1519;-36
2021/11/12 06:29:06;;;;;;;;;;;;;;;20.39;56.56;101787.47;5050061;28;1630;-36
2021/11/12 06:31:33;;;;;;;;;;;;;;;20.16;58.18;101774.00;5052428;28;1545;-36
2021/11/12 06:33:59;;;;;;;;;;;;;;;19.94;58.50;101782.84;5054674;28;1987;-36
2021/11/12 06:36:26;;;;;;;;;;;;;;;20.01;57.64;101788.59;5056585;28;1510;-36
2021/11/12 06:38:53;;;;;;;;;;;;;;;20.52;57.42;101782.00;5056799;28;1537;-36
2021/11/12 06:41:36;;;;;;;;;;;;;;;20.69;54.93;101778.88;5059718;28;1485;-36
2021/11/12 06:44:21;;;;;;;;;;;;;;;20.20;57.44;101764.75;5051557;28;1869;-36
2021/11/12 06:49:38;;;;;;;;;;;;;;;20.41;54.60;101785.53;5051659;28;1630;-36
2021/11/12 06:52:05;;;;;;;;;;;;;;;20.29;55.79;101748.88;5055837;28;1588;-37
2021/11/12 06:54:31;;;;;;;;;;;;;;;19.88;56.46;101753.81;5063207;28;1969;-36
2021/11/12 06:56:58;;;;;;;;;;;;;;;20.09;54.27;101779.97;5058323;28;1581;-36
2021/11/12 06:59:25;;;;;;;;;;;;;;;20.58;53.76;101757.34;5047992;28;1526;-36
2021/11/12 07:01:53;;;;;;;;;;;;;;;20.45;54.17;101761.00;5056607;28;1545;-35
2021/11/12 07:04:20;;;;;;;;;;;;;;;20.03;56.05;101744.59;5056435;28;1663;-35
2021/11/12 07:06:46;;;;;;;;;;;;;;;20.16;55.17;101752.53;5039739;28;1835;-35
2021/11/12 07:09:13;;;;;;;;;;;;;;;20.51;54.31;101739.97;5044651;28;1395;-35
2021/11/12 07:11:39;;;;;;;;;;;;;;;20.33;55.13;101755.72;5047860;28;1842;-35
2021/11/12 07:14:06;;;;;;;;;;;;;;;20.12;55.72;101767.16;5042302;28;1910;-35
2021/11/12 07:16:33;;;;;;;;;;;;;;;20.15;56.57;101748.13;5035854;28;1523;-35
2021/11/12 07:19:01;;;;;;;;;;;;;;;20.59;55.72;101768.00;5044231;28;1567;-35
2021/11/12 07:21:29;;;;;;;;;;;;;;;20.90;54.46;101753.94;5041186;28;1665;-35
2021/11/12 07:23:55;;;;;;;;;;;;;;;20.80;55.13;101753.81;5039235;28;1709;-35
2021/11/12 07:26:22;;;;;;;;;;;;;;;20.50;55.01;101763.31;5036601;28;1623;-35
2021/11/12 07:28:49;;;;;;;;;;;;;;;20.30;55.72;101764.03;5046592;28;1698;-35
2021/11/12 08:19:51;;;;;;;;;;;;;;;18.73;50.65;101740.81;5087074;28;1587;-35
2021/11/12 08:22:21;;;;;;;;;;;;;;;19.74;51.25;101733.38;5085934;28;1841;-35
2021/11/12 08:24:53;;;;;;;;;;;;;;;20.64;49.49;101732.69;5079507;28;1342;-35
2021/11/12 08:27:45;;;;;;;;;;;;;;;20.54;50.75;101735.22;5083160;28;1891;-35
2021/11/12 08:39:37;;;;;;;;;;;;;;;20.60;55.01;101740.13;5084869;28;1505;-35
2021/11/12 08:42:07;;;;;;;;;;;;;;;20.30;55.42;101742.53;5084114;28;1658;-35
2021/11/12 08:44:37;;;;;;;;;;;;;;;20.26;56.29;101745.47;5071398;28;1402;-36
2021/11/12 08:47:08;;;;;;;;;;;;;;;20.79;56.34;101718.03;5076353;28;1585;-36
2021/11/12 08:49:37;;;;;;;;;;;;;;;20.88;56.74;101727.16;5080572;28;2026;-36
2021/11/12 08:52:05;;;;;;;;;;;;;;;20.48;57.85;101711.53;5067946;28;1545;-36
2021/11/12 08:54:35;;;;;;;;;;;;;;;20.26;58.03;101744.59;5068739;28;1969;-35
2021/11/12 08:57:05;;;;;;;;;;;;;;;20.61;58.48;101717.69;5078016;28;1554;-35
2021/11/12 08:59:32;;;;;;;;;;;;;;;21.03;57.37;101731.31;5069294;28;1490;-35
2021/11/12 09:01:59;;;;;;;;;;;;;;;20.64;58.10;101728.16;5075248;28;1583;-35
2021/11/12 09:04:27;;;;;;;;;;;;;;;20.41;58.41;101738.03;5079737;28;1508;-35
2021/11/12 09:06:53;;;;;;;;;;;;;;;20.16;58.79;101728.34;5070002;28;1509;-35
2021/11/12 09:09:20;;;;;;;;;;;;;;;20.08;59.67;101714.69;5086371;28;1683;-35
2021/11/12 09:11:48;;;;;;;;;;;;;;;20.10;60.43;101718.09;5084618;28;1533;-35
2021/11/12 09:14:17;;;;;;;;;;;;;;;20.09;59.25;101721.75;5081705;28;1914;-35
2021/11/12 09:16:45;;;;;;;;;;;;;;;20.16;60.03;101706.88;5077515;28;1427;-35
2021/11/12 09:19:13;;;;;;;;;;;;;;;20.24;59.52;101723.22;5080650;28;1584;-35
2021/11/12 09:21:40;;;;;;;;;;;;;;;20.18;59.50;101704.06;5069277;28;1958;-35
2021/11/12 09:24:06;;;;;;;;;;;;;;;20.03;61.01;101696.25;5076251;28;1540;-35
2021/11/12 09:26:34;;;;;;;;;;;;;;;19.97;60.89;101702.06;5079745;28;1443;-35
2021/11/12 09:29:02;;;;;;;;;;;;;;;19.97;61.32;101718.19;5077997;28;1597;-35
2021/11/12 09:31:28;;;;;;;;;;;;;;;19.96;61.63;101696.84;5077157;28;1534;-35
2021/11/12 09:33:57;;;;;;;;;;;;;;;20.09;61.09;101694.03;5081225;28;1930;-35
2021/11/12 09:36:23;;;;;;;;;;;;;;;20.01;62.20;101694.63;5078238;28;1601;-35
2021/11/12 09:38:50;;;;;;;;;;;;;;;20.17;61.04;101673.66;5080928;28;1513;-35
2021/11/12 09:41:17;;;;;;;;;;;;;;;19.87;55.25;101684.97;5078254;28;1714;-35
2021/11/12 09:43:43;;;;;;;;;;;;;;;19.89;59.92;101691.06;5081133;28;1537;-35
2021/11/12 09:46:11;;;;;;;;;;;;;;;19.82;59.52;101693.38;5081094;28;1701;-38
2021/11/12 09:48:38;;;;;;;;;;;;;;;19.75;61.18;101681.41;5084740;28;1873;-38
2021/11/12 09:51:05;;;;;;;;;;;;;;;19.74;60.85;101674.34;5081807;28;1806;-38
2021/11/12 09:53:32;;;;;;;;;;;;;;;19.71;61.74;101668.31;5076146;28;1973;-38
2021/11/12 09:55:58;;;;;;;;;;;;;;;19.71;61.47;101665.63;5076122;28;1526;-38
2021/11/12 09:58:25;;;;;;;;;;;;;;;19.68;60.76;101658.69;5082141;28;1611;-38
2021/11/12 10:00:56;;;;;;;;;;;;;;;19.66;60.96;101661.47;5082419;28;1561;-37
2021/11/12 10:03:31;;;;;;;;;;;;;;;19.62;61.42;101653.78;5081788;28;2035;-38
2021/11/12 10:05:57;;;;;;;;;;;;;;;19.64;61.30;101662.56;5086594;28;1326;-35
2021/11/12 10:08:26;;;;;;;;;;;;;;;19.64;61.74;101657.22;5085321;28;2573;-35
2021/11/12 10:10:53;;;;;;;;;;;;;;;19.62;61.98;101651.09;5079084;28;1602;-35
2021/11/12 10:13:23;;;;;;;;;;;;;;;19.62;61.05;101653.78;5075836;28;1902;-35
2021/11/12 10:15:54;;;;;;;;;;;;;;;19.59;61.10;101654.00;5079708;28;1714;-35
2021/11/12 10:18:21;;;;;;;;;;;;;;;19.59;61.17;101649.50;5080309;28;1485;-35
2021/11/12 10:20:58;;;;;;;;;;;;;;;19.56;61.19;101646.22;5084155;28;1724;-35
2021/11/12 10:23:29;;;;;;;;;;;;;;;19.55;62.00;101642.66;5085274;28;1631;-35
2021/11/12 10:25:56;;;;;;;;;;;;;;;19.53;61.30;101633.03;5080403;28;1497;-35
2021/11/12 10:28:39;;;;;;;;;;;;;;;19.52;61.62;101642.03;5065395;28;1450;-35
2021/11/12 10:31:16;;;;;;;;;;;;;;;19.55;62.44;101636.44;5075307;28;2330;-36
2021/11/12 10:33:43;;;;;;;;;;;;;;;19.48;61.90;101626.19;5076383;28;1984;-35
2021/11/12 10:36:12;;;;;;;;;;;;;;;19.47;61.40;101629.81;5078253;28;1482;-35
2021/11/12 10:38:40;;;;;;;;;;;;;;;19.45;61.28;101607.63;5079825;28;1444;-35
2021/11/12 10:41:16;;;;;;;;;;;;;;;19.45;62.18;101625.56;5083082;28;1580;-35
2021/11/12 10:43:43;;;;;;;;;;;;;;;19.44;61.33;101616.66;5085821;28;1537;-35
2021/11/12 10:46:15;;;;;;;;;;;;;;;19.43;61.50;101603.38;5079433;28;1676;-35
2021/11/12 10:48:42;;;;;;;;;;;;;;;19.42;61.62;101601.66;5085551;28;1486;-35
2021/11/12 10:51:29;;;;;;;;;;;;;;;19.41;61.58;101597.25;5089627;28;1552;-35
2021/11/12 10:53:56;;;;;;;;;;;;;;;19.41;62.51;101595.44;5086932;28;1910;-35
2021/11/12 10:56:24;;;;;;;;;;;;;;;19.39;62.15;101608.09;5090307;28;1625;-35
2021/11/12 10:59:01;;;;;;;;;;;;;;;19.43;61.36;101604.22;5091686;28;1750;-35
2021/11/12 11:01:31;;;;;;;;;;;;;;;19.42;62.28;101593.63;5084029;28;1505;-35
2021/11/12 11:04:15;;;;;;;;;;;;;;;19.44;62.13;101597.03;5078188;28;1561;-35
2021/11/12 11:06:45;;;;;;;;;;;;;;;19.41;61.17;101595.44;5091372;28;1566;-35
2021/11/12 11:09:14;;;;;;;;;;;;;;;19.42;61.69;101599.84;5086625;28;1444;-35
2021/11/12 11:11:47;;;;;;;;;;;;;;;19.41;61.24;101597.25;5086119;28;1628;-35
2021/11/12 11:14:27;;;;;;;;;;;;;;;19.43;61.08;101601.53;5090684;28;1909;-35
2021/11/12 11:16:56;;;;;;;;;;;;;;;19.36;61.41;101573.50;5090861;28;1316;-35
2021/11/12 11:19:38;;;;;;;;;;;;;;;19.35;61.92;101587.84;5088215;28;1696;-35
2021/11/12 11:22:14;;;;;;;;;;;;;;;19.32;61.87;101580.06;5085675;28;1528;-35
2021/11/12 11:24:41;;;;;;;;;;;;;;;19.34;61.71;101575.44;5084210;28;1781;-36
2021/11/12 11:27:13;;;;;;;;;;;;;;;19.34;60.97;101574.56;5083692;28;1430;-35
2021/11/12 11:29:40;;;;;;;;;;;;;;;19.32;62.12;101573.81;5081990;28;1483;-35
2021/11/12 11:32:07;;;;;;;;;;;;;;;19.31;61.87;101586.38;5082726;28;1615;-35
2021/11/12 11:34:35;;;;;;;;;;;;;;;19.31;61.30;101575.66;5082329;28;2153;-35
2021/11/12 11:37:03;;;;;;;;;;;;;;;19.30;62.30;101565.91;5086244;28;1636;-35
2021/11/12 11:39:31;;;;;;;;;;;;;;;19.32;61.33;101555.94;5082926;28;1672;-35
2021/11/12 11:42:02;;;;;;;;;;;;;;;19.29;61.10;101545.44;5087399;28;1593;-37
2021/11/12 11:44:32;;;;;;;;;;;;;;;19.28;60.95;101544.56;5079247;28;1462;-37
2021/11/12 11:47:03;;;;;;;;;;;;;;;19.32;61.31;101561.28;5080595;28;1568;-37
2021/11/12 11:49:32;;;;;;;;;;;;;;;19.31;61.80;101564.94;5088117;28;1689;-38
2021/11/12 11:52:00;;;;;;;;;;;;;;;19.30;61.12;101544.47;5083207;28;1549;-38
2021/11/12 11:54:29;;;;;;;;;;;;;;;19.30;60.54;101541.78;5079101;28;1906;-38
2021/11/12 11:57:00;;;;;;;;;;;;;;;19.29;61.14;101537.38;5082755;28;1743;-37
2021/11/12 11:59:38;;;;;;;;;;;;;;;19.30;61.80;101541.78;5087570;28;1636;-37
2021/11/12 12:02:06;;;;;;;;;;;;;;;19.30;60.80;101543.59;5084563;28;1717;-38
2021/11/12 12:04:40;;;;;;;;;;;;;;;19.27;60.80;101533.97;5090400;28;1994;-37
2021/11/12 12:07:34;;;;;;;;;;;;;;;19.26;62.04;101530.44;5090943;28;1507;-37
2021/11/12 12:10:31;;;;;;;;;;;;;;;19.24;62.21;101542.25;5086278;28;1512;-37
2021/11/12 12:13:01;;;;;;;;;;;;;;;19.24;61.10;101540.44;5025896;28;1700;-37
2021/11/12 12:15:33;;;;;;;;;;;;;;;19.24;61.03;101540.44;5075506;28;1917;-37
2021/11/12 12:18:07;;;;;;;;;;;;;;;19.20;61.63;101522.00;5087303;28;1649;-37
2021/11/12 12:20:58;;;;;;;;;;;;;;;19.24;61.15;101528.84;5088290;28;1581;-37
2021/11/12 12:35:10;;;;;;;;;;;;;;;19.19;61.38;101522.97;5084357;28;1988;-37
2021/11/12 13:20:11;;;;;;;;;;;;;;;18.99;62.36;101495.03;5085243;28;1366;-38
2021/11/12 13:23:00;;;;;;;;;;;;;;;18.96;62.41;101482.72;5071679;28;1665;-37
2021/11/12 13:25:29;;;;;;;;;;;;;;;18.97;61.88;101495.13;5080994;28;1536;-37
2021/11/12 13:28:12;;;;;;;;;;;;;;;18.96;62.02;101482.72;5081252;28;1866;-38
2021/11/12 13:30:39;;;;;;;;;;;;;;;18.95;62.33;101497.06;5075945;28;1462;-37
2021/11/12 13:33:24;;;;;;;;;;;;;;;18.92;61.42;101478.56;5082245;28;1442;-37
2021/11/12 13:35:53;;;;;;;;;;;;;;;18.86;60.06;101495.09;5086626;28;1898;-37
2021/11/12 13:38:27;;;;;;;;;;;;;;;19.04;60.53;101511.63;5083339;28;1804;-37
2021/11/12 13:41:01;;;;;;;;;;;;;;;19.01;61.43;101485.88;5086533;28;1738;-38
2021/11/12 13:43:28;;;;;;;;;;;;;;;19.07;61.29;101490.78;5084658;28;1632;-38
2021/11/12 13:45:59;;;;;;;;;;;;;;;19.08;60.77;101500.53;5076778;28;1612;-37
2021/11/12 13:48:27;;;;;;;;;;;;;;;19.08;61.34;101486.28;5072023;28;1540;-37
2021/11/12 13:50:56;;;;;;;;;;;;;;;19.33;60.92;101498.63;5084561;28;1330;-38
2021/11/12 13:53:25;;;;;;;;;;;;;;;19.15;61.57;101494.69;5080408;28;1734;-38
2021/11/12 13:55:54;;;;;;;;;;;;;;;19.03;62.47;101494.66;5071634;28;1975;-38
2021/11/12 13:58:25;;;;;;;;;;;;;;;19.12;62.41;101497.59;5079508;28;1545;-37
2021/11/12 14:00:52;;;;;;;;;;;;;;;19.05;62.19;101490.03;5075388;28;2296;-38
2021/11/12 14:03:20;;;;;;;;;;;;;;;19.03;62.24;101496.50;5083395;28;1422;-37
2021/11/12 14:05:57;;;;;;;;;;;;;;;19.07;61.49;101488.09;5080840;28;1479;-37
2021/11/12 14:08:33;;;;;;;;;;;;;;;19.12;61.16;101492.25;5085516;28;1755;-37
2021/11/12 14:11:16;;;;;;;;;;;;;;;19.07;61.35;101485.41;5087887;28;1715;-37
2021/11/12 14:13:46;;;;;;;;;;;;;;;19.07;61.22;101490.78;5085711;28;1372;-37
2021/11/12 14:16:33;;;;;;;;;;;;;;;19.11;61.32;101493.22;5077831;28;1902;-37
2021/11/12 14:22:28;;;;;;;;;;;;;;;19.04;61.37;101493.72;5082656;28;1702;-38
2021/11/12 14:25:09;;;;;;;;;;;;;;;19.09;61.01;101496.03;5076164;28;1533;-37
2021/11/12 14:27:38;;;;;;;;;;;;;;;19.08;60.85;101487.13;5087978;28;1598;-38
2021/11/12 14:33:11;;;;;;;;;;;;;;;19.03;62.32;101491.13;5078563;28;1966;-37
2021/11/12 14:35:55;;;;;;;;;;;;;;;19.08;62.20;101494.31;5091449;28;1906;-38
2021/11/12 14:38:33;;;;;;;;;;;;;;;19.03;61.55;101475.91;5085392;28;1436;-37
2021/11/12 14:44:06;;;;;;;;;;;;;;;18.99;62.23;101495.03;5093958;28;1585;-37
2021/11/12 14:46:50;;;;;;;;;;;;;;;18.99;61.09;101487.81;5088978;28;1520;-38
2021/11/12 14:49:21;;;;;;;;;;;;;;;19.43;60.07;101478.16;5094875;28;1678;-37
2021/11/12 14:52:02;;;;;;;;;;;;;;;19.90;58.86;101480.75;5091416;28;1590;-38
2021/11/12 14:54:35;;;;;;;;;;;;;;;20.03;58.09;101469.84;5092034;28;1984;-38
2021/11/12 14:57:05;;;;;;;;;;;;;;;20.42;57.11;101480.97;5091804;28;1777;-37
2021/11/12 14:59:39;;;;;;;;;;;;;;;20.51;58.00;101485.56;5087667;28;1564;-38
2021/11/12 15:02:09;;;;;;;;;;;;;;;20.73;57.47;101481.13;5085027;28;1902;-37
2021/11/12 15:04:59;;;;;;;;;;;;;;;20.69;57.28;101487.72;5095098;28;1802;-37
2021/11/12 15:07:31;;;;;;;;;;;;;;;20.66;57.99;101505.81;5083630;28;1573;-35
2021/11/12 15:10:02;;;;;;;;;;;;;;;20.68;57.41;101512.91;5087889;28;1618;-35
2021/11/12 15:12:32;;;;;;;;;;;;;;;20.25;59.82;101510.09;5091346;28;1516;-35
2021/11/12 15:15:01;;;;;;;;;;;;;;;19.92;59.23;101508.31;5090373;28;2361;-35
2021/11/12 15:17:30;;;;;;;;;;;;;;;20.17;59.76;101519.75;5094345;28;1621;-35
2021/11/12 15:19:59;;;;;;;;;;;;;;;20.46;58.20;101510.13;5086755;28;1625;-35
2021/11/12 15:22:38;;;;;;;;;;;;;;;20.19;59.33;101507.91;5087582;28;1890;-35
2021/11/12 15:25:18;;;;;;;;;;;;;;;20.00;59.24;101513.06;5067937;28;1503;-35
2021/11/12 15:27:54;;;;;;;;;;;;;;;20.44;59.45;101514.78;5090267;28;1581;-35
2021/11/12 15:30:40;;;;;;;;;;;;;;;20.69;58.14;101511.91;5085052;28;1587;-35
2021/11/12 15:33:09;;;;;;;;;;;;;;;20.43;60.11;101528.34;5079932;28;1551;-35
2021/11/12 15:35:36;;;;;;;;;;;;;;;20.31;60.42;101526.66;5081565;28;1910;-35
2021/11/12 15:38:06;;;;;;;;;;;;;;;20.62;60.00;101515.13;5083542;28;1624;-35
2021/11/12 15:40:36;;;;;;;;;;;;;;;20.60;59.38;101527.84;5085037;28;1568;-35
2021/11/12 15:43:26;;;;;;;;;;;;;;;20.32;60.88;101534.59;5082415;28;1556;-35
2021/11/12 15:46:09;;;;;;;;;;;;;;;20.12;61.17;101528.19;5079907;28;1712;-35
2021/11/12 15:48:40;;;;;;;;;;;;;;;20.55;59.67;101534.53;5077061;28;1486;-35
2021/11/12 15:56:59;;;;;;;;;;;;;;;20.15;59.81;101541.34;5082077;28;2415;-35
2021/11/12 15:59:31;;;;;;;;;;;;;;;20.70;58.71;101538.69;5083793;28;1541;-35
2021/11/12 16:13:09;;;;;;;;;;;;;;;20.59;60.75;101544.97;5081448;28;1493;-35
2021/11/12 16:18:42;;;;;;;;;;;;;;;20.07;62.33;101551.84;5084243;28;2299;-35
2021/11/12 16:27:09;;;;;;;;;;;;;;;20.46;60.77;101552.28;5016130;28;1822;-35
2021/11/12 16:29:45;;;;;;;;;;;;;;;20.21;60.54;101562.34;5062087;28;1575;-35
2021/11/12 16:32:20;;;;;;;;;;;;;;;20.10;60.88;101572.25;5090629;28;1635;-35
2021/11/12 16:34:50;;;;;;;;;;;;;;;20.00;62.44;101569.44;5078973;28;1976;-35
2021/11/12 16:37:19;;;;;;;;;;;;;;;20.23;60.62;101565.78;5074791;28;1572;-35
2021/11/12 16:39:49;;;;;;;;;;;;;;;20.61;59.11;101574.38;5070376;28;1771;-35
2021/11/12 16:42:34;;;;;;;;;;;;;;;20.20;60.57;101551.72;5074049;28;1784;-35
2021/11/12 16:45:06;;;;;;;;;;;;;;;19.90;61.09;101561.28;5076002;28;2405;-35
2021/11/12 16:47:46;;;;;;;;;;;;;;;19.75;61.84;101574.06;5074200;28;1638;-35
2021/11/12 16:50:24;;;;;;;;;;;;;;;20.29;59.55;101572.44;5083680;28;1667;-35
2021/11/12 16:55:53;;;;;;;;;;;;;;;20.04;60.20;101563.69;5044065;28;2005;-35
2021/11/12 16:58:27;;;;;;;;;;;;;;;19.79;61.68;101562.09;5083915;28;1544;-35
2021/11/12 17:04:15;;;;;;;;;;;;;;;20.57;58.46;101565.69;5004920;28;1786;-35
2021/11/12 17:06:46;;;;;;;;;;;;;;;20.14;60.36;101579.09;5021186;28;1544;-35
2021/11/12 17:09:32;;;;;;;;;;;;;;;19.89;61.03;101569.44;5062579;28;1542;-35
2021/11/12 17:12:15;;;;;;;;;;;;;;;19.95;59.98;101567.09;5085315;28;1511;-35
2021/11/12 17:17:35;;;;;;;;;;;;;;;20.23;59.01;101563.09;5044028;28;1810;-35
2021/11/12 17:23:32;;;;;;;;;;;;;;;19.76;61.15;101574.94;5041196;28;1709;-35
2021/11/12 17:48:07;;;;;;;;;;;;;;;20.16;59.47;101553.81;5053029;28;1768;-35
2021/11/12 17:50:42;;;;;;;;;;;;;;;20.36;58.96;101551.34;5076895;28;1541;-35
2021/11/12 18:04:07;;;;;;;;;;;;;;;20.13;60.33;101562.09;5084591;28;1514;-35
2021/11/12 18:06:38;;;;;;;;;;;;;;;19.81;61.08;101562.00;5086057;28;1522;-35
2021/11/12 18:17:58;;;;;;;;;;;;;;;19.81;61.01;101562.00;4999470;28;1587;-35
2021/11/12 21:45:32;;;;;;;;;;;;;;;19.20;60.34;101575.63;5061875;28;1318;-36
2021/11/12 21:47:58;;;;;;;;;;;;;;;19.13;59.33;101577.06;5060193;28;1905;-36
2021/11/12 21:50:26;;;;;;;;;;;;;;;19.25;59.29;101581.50;5061367;28;1597;-36
2021/11/12 21:52:53;;;;;;;;;;;;;;;19.39;58.18;101578.59;5065316;28;1549;-36
2021/11/12 21:55:19;;;;;;;;;;;;;;;20.39;54.82;101576.13;5062647;28;1605;-36
2021/11/12 21:57:45;;;;;;;;;;;;;;;19.67;57.11;101582.66;5066588;28;1902;-36
2021/11/12 22:00:13;;;;;;;;;;;;;;;19.40;57.56;101600.94;5065612;28;1587;-36
2021/11/12 22:02:40;;;;;;;;;;;;;;;19.28;59.14;101570.53;5057873;28;1828;-36
2021/11/12 22:05:07;;;;;;;;;;;;;;;19.13;59.40;101587.78;5065542;28;2295;-35
2021/11/12 22:07:36;;;;;;;;;;;;;;;19.12;58.62;101581.59;5061591;28;1495;-35
2021/11/12 22:10:03;;;;;;;;;;;;;;;19.19;59.06;101581.97;5062026;28;1674;-36
2021/11/12 22:12:29;;;;;;;;;;;;;;;20.01;56.52;101579.19;5063908;28;1946;-35
2021/11/12 22:14:56;;;;;;;;;;;;;;;19.89;56.61;101581.00;5065193;28;1568;-36
2021/11/12 22:17:22;;;;;;;;;;;;;;;19.58;57.73;101582.56;5063192;28;1977;-36
2021/11/12 22:19:49;;;;;;;;;;;;;;;19.34;58.03;101582.59;5063599;28;1662;-35
2021/11/12 22:22:15;;;;;;;;;;;;;;;19.15;59.44;101584.03;5060969;28;1468;-36
2021/11/12 22:24:43;;;;;;;;;;;;;;;19.11;59.61;101592.41;5058627;28;1954;-36